首页
METAR-TAF:

METAR-TAF

机场 :

拉姆施泰因空军基地, 德国

纬度: 49-26N, 经度: 007-36E, 海拔: 238米

当前天气观测

该预报发布于17分钟前的03:56 UTC
风速5节,风向东北
温度 1°C
湿度 100%
气压 1001 hPa
能见度10公里或以上
天空无云

METAR: ETAR 140356Z AUTO 04005KT 9999 CLR 01/01 A2955 RMK AO2 SLP019 T00120012 $

时间: 05:13 (04:13 UTC)

预报

该预报发布于2小时和13分钟前的02:00 UTC
预报有效从14日的 02点(UTC)到 15日的 08点(UTC)
风速6节,风向多变
能见度10公里或以上
散云层高于1500英尺
多云层高于2000英尺
成为
从 14日的 05点(UTC)到 14日的 06点(UTC)
风速6节,风向东转东南
能见度10公里或以上
散云层高于1500英尺
成为
从 14日的 09点(UTC)到 14日的 10点(UTC)
风速6节,风向多变
能见度10公里或以上
散云层高于2000英尺
多云层高于8000英尺
成为
从 14日的 21点(UTC)到 14日的 22点(UTC)
风速9节,风向东北
能见度10公里或以上
多云层高于2000英尺

TAF: ETAR 140200Z 1402/1508 VRB06KT 9999 SCT015 BKN020 QNH2956INS BECMG 1405/1406 11006KT 9999 SCT015 QNH2954INS BECMG 1409/1410 VRB06KT 9999 SCT020 BKN080 QNH2949INS BECMG 1421/1422 05009KT 9999 BKN020 QNH2940INS TX08/1412Z TN01/1406Z

超过4000个机场的气象观测和天气预报(METAR&TAF报告)。

可查询的气象台以黄色和红色小点在地图上表示。

将鼠标移到小点上方,可查看气象台名称。

然后点击查看天气观测和预报。

如需切换地图:点击带黑十字的绿色按钮放大地图;点击带横线的绿色按钮缩小地图;或者点击绿色箭头查看邻近地区的地图。


METAR-TAF: